sensor_id;sensor_type;location;lat;lon;timestamp;P1;durP1;ratioP1;P2;durP2;ratioP2
68375;SDS011;55318;52.068;5.188;2022-08-21T00:01:27;4.8;;;2.5;;
68375;SDS011;55318;52.068;5.188;2022-08-21T00:04:45;3.1;;;2.31;;
68375;SDS011;55318;52.068;5.188;2022-08-21T00:06:23;4.91;;;2.6;;
68375;SDS011;55318;52.068;5.188;2022-08-21T00:08:02;3.1;;;2.1;;
68375;SDS011;55318;52.068;5.188;2022-08-21T00:11:16;4.91;;;3.0;;
68375;SDS011;55318;52.068;5.188;2022-08-21T00:12:54;5.5;;;2.6;;
68375;SDS011;55318;52.068;5.188;2022-08-21T00:14:31;5.6;;;2.7;;
68375;SDS011;55318;52.068;5.188;2022-08-21T00:16:09;5.7;;;2.7;;
68375;SDS011;55318;52.068;5.188;2022-08-21T00:19:24;3.7;;;2.21;;
68375;SDS011;55318;52.068;5.188;2022-08-21T00:21:02;2.8;;;2.0;;
68375;SDS011;55318;52.068;5.188;2022-08-21T00:22:39;2.5;;;2.31;;
68375;SDS011;55318;52.068;5.188;2022-08-21T00:25:54;4.0;;;2.31;;
68375;SDS011;55318;52.068;5.188;2022-08-21T00:27:31;6.4;;;2.31;;
68375;SDS011;55318;52.068;5.188;2022-08-21T00:29:07;2.6;;;2.1;;
68375;SDS011;55318;52.068;5.188;2022-08-21T00:32:21;4.2;;;2.6;;
68375;SDS011;55318;52.068;5.188;2022-08-21T00:34:00;2.6;;;2.21;;
68375;SDS011;55318;52.068;5.188;2022-08-21T00:35:38;6.5;;;2.4;;
68375;SDS011;55318;52.068;5.188;2022-08-21T00:37:17;3.2;;;2.21;;
68375;SDS011;55318;52.068;5.188;2022-08-21T00:40:33;3.4;;;2.4;;
68375;SDS011;55318;52.068;5.188;2022-08-21T00:42:15;4.2;;;2.9;;
68375;SDS011;55318;52.068;5.188;2022-08-21T00:43:53;5.0;;;2.8;;
68375;SDS011;55318;52.068;5.188;2022-08-21T00:45:31;3.9;;;2.4;;
68375;SDS011;55318;52.068;5.188;2022-08-21T00:48:46;4.91;;;2.5;;
68375;SDS011;55318;52.068;5.188;2022-08-21T00:50:24;4.5;;;2.8;;
68375;SDS011;55318;52.068;5.188;2022-08-21T00:52:05;4.7;;;2.6;;
68375;SDS011;55318;52.068;5.188;2022-08-21T00:53:46;3.2;;;2.0;;
68375;SDS011;55318;52.068;5.188;2022-08-21T00:57:03;4.5;;;2.6;;
68375;SDS011;55318;52.068;5.188;2022-08-21T00:58:46;3.0;;;2.4;;
68375;SDS011;55318;52.068;5.188;2022-08-21T01:00:25;4.2;;;2.6;;
68375;SDS011;55318;52.068;5.188;2022-08-21T01:03:45;3.2;;;2.6;;
68375;SDS011;55318;52.068;5.188;2022-08-21T01:05:23;4.2;;;2.5;;
68375;SDS011;55318;52.068;5.188;2022-08-21T01:07:00;3.4;;;2.1;;
68375;SDS011;55318;52.068;5.188;2022-08-21T01:08:37;4.7;;;2.8;;
68375;SDS011;55318;52.068;5.188;2022-08-21T01:11:52;3.6;;;2.31;;
68375;SDS011;55318;52.068;5.188;2022-08-21T01:13:31;4.3;;;2.9;;
68375;SDS011;55318;52.068;5.188;2022-08-21T01:15:10;4.3;;;3.1;;
68375;SDS011;55318;52.068;5.188;2022-08-21T01:16:51;4.3;;;2.6;;
68375;SDS011;55318;52.068;5.188;2022-08-21T01:20:08;4.41;;;2.9;;
68375;SDS011;55318;52.068;5.188;2022-08-21T01:21:47;4.0;;;2.9;;
68375;SDS011;55318;52.068;5.188;2022-08-21T01:23:25;4.2;;;2.6;;
68375;SDS011;55318;52.068;5.188;2022-08-21T01:26:41;3.4;;;2.4;;
68375;SDS011;55318;52.068;5.188;2022-08-21T01:28:19;6.7;;;3.0;;
68375;SDS011;55318;52.068;5.188;2022-08-21T01:29:59;5.2;;;2.8;;
68375;SDS011;55318;52.068;5.188;2022-08-21T01:31:44;6.2;;;2.7;;
68375;SDS011;55318;52.068;5.188;2022-08-21T01:35:01;3.2;;;2.5;;
68375;SDS011;55318;52.068;5.188;2022-08-21T01:36:40;5.3;;;2.8;;
68375;SDS011;55318;52.068;5.188;2022-08-21T01:38:16;5.0;;;2.6;;
68375;SDS011;55318;52.068;5.188;2022-08-21T01:39:53;7.0;;;2.7;;
68375;SDS011;55318;52.068;5.188;2022-08-21T01:43:06;4.41;;;2.4;;
68375;SDS011;55318;52.068;5.188;2022-08-21T01:44:43;3.3;;;2.31;;
68375;SDS011;55318;52.068;5.188;2022-08-21T01:46:20;5.0;;;2.7;;
68375;SDS011;55318;52.068;5.188;2022-08-21T01:49:32;4.3;;;2.6;;
68375;SDS011;55318;52.068;5.188;2022-08-21T01:51:10;4.0;;;3.0;;
68375;SDS011;55318;52.068;5.188;2022-08-21T01:52:48;3.3;;;2.6;;
68375;SDS011;55318;52.068;5.188;2022-08-21T01:54:25;5.6;;;4.0;;
68375;SDS011;55318;52.068;5.188;2022-08-21T01:57:42;4.61;;;2.9;;
68375;SDS011;55318;52.068;5.188;2022-08-21T01:59:19;3.1;;;2.7;;
68375;SDS011;55318;52.068;5.188;2022-08-21T02:00:58;4.7;;;2.6;;
68375;SDS011;55318;52.068;5.188;2022-08-21T02:04:11;5.2;;;2.4;;
68375;SDS011;55318;52.068;5.188;2022-08-21T02:05:48;6.6;;;3.0;;
68375;SDS011;55318;52.068;5.188;2022-08-21T02:07:24;3.2;;;2.6;;
68375;SDS011;55318;52.068;5.188;2022-08-21T02:10:40;5.5;;;2.6;;
68375;SDS011;55318;52.068;5.188;2022-08-21T02:12:17;5.5;;;2.6;;
68375;SDS011;55318;52.068;5.188;2022-08-21T02:13:54;4.3;;;2.6;;
68375;SDS011;55318;52.068;5.188;2022-08-21T02:15:30;4.3;;;2.6;;
68375;SDS011;55318;52.068;5.188;2022-08-21T02:18:43;3.2;;;2.6;;
68375;SDS011;55318;52.068;5.188;2022-08-21T02:20:21;4.3;;;3.2;;
68375;SDS011;55318;52.068;5.188;2022-08-21T02:22:03;5.5;;;2.4;;
68375;SDS011;55318;52.068;5.188;2022-08-21T02:25:16;4.91;;;3.3;;
68375;SDS011;55318;52.068;5.188;2022-08-21T02:26:54;4.41;;;2.9;;
68375;SDS011;55318;52.068;5.188;2022-08-21T02:28:30;9.0;;;3.7;;
68375;SDS011;55318;52.068;5.188;2022-08-21T02:30:08;6.2;;;3.1;;
68375;SDS011;55318;52.068;5.188;2022-08-21T02:33:24;3.4;;;2.6;;
68375;SDS011;55318;52.068;5.188;2022-08-21T02:35:02;5.4;;;3.1;;
68375;SDS011;55318;52.068;5.188;2022-08-21T02:36:39;6.0;;;2.9;;
68375;SDS011;55318;52.068;5.188;2022-08-21T02:39:59;5.2;;;2.4;;
68375;SDS011;55318;52.068;5.188;2022-08-21T02:41:36;3.5;;;2.5;;
68375;SDS011;55318;52.068;5.188;2022-08-21T02:43:12;8.81;;;3.4;;
68375;SDS011;55318;52.068;5.188;2022-08-21T02:44:51;6.5;;;2.4;;
68375;SDS011;55318;52.068;5.188;2022-08-21T02:48:05;3.1;;;2.5;;
68375;SDS011;55318;52.068;5.188;2022-08-21T02:49:44;7.2;;;2.21;;
68375;SDS011;55318;52.068;5.188;2022-08-21T02:51:22;5.3;;;3.2;;
68375;SDS011;55318;52.068;5.188;2022-08-21T02:54:36;5.2;;;3.0;;
68375;SDS011;55318;52.068;5.188;2022-08-21T02:56:14;5.0;;;3.4;;
68375;SDS011;55318;52.068;5.188;2022-08-21T02:57:56;4.41;;;3.1;;
68375;SDS011;55318;52.068;5.188;2022-08-21T02:59:34;4.2;;;2.6;;
68375;SDS011;55318;52.068;5.188;2022-08-21T03:02:48;4.1;;;2.31;;
68375;SDS011;55318;52.068;5.188;2022-08-21T03:04:26;3.0;;;2.21;;
68375;SDS011;55318;52.068;5.188;2022-08-21T03:06:03;5.7;;;3.1;;
68375;SDS011;55318;52.068;5.188;2022-08-21T03:07:41;4.3;;;2.5;;
68375;SDS011;55318;52.068;5.188;2022-08-21T03:10:55;4.91;;;3.1;;
68375;SDS011;55318;52.068;5.188;2022-08-21T03:12:32;4.91;;;3.8;;
68375;SDS011;55318;52.068;5.188;2022-08-21T03:14:09;3.1;;;2.31;;
68375;SDS011;55318;52.068;5.188;2022-08-21T03:17:23;5.4;;;3.0;;
68375;SDS011;55318;52.068;5.188;2022-08-21T03:19:00;3.2;;;2.31;;
68375;SDS011;55318;52.068;5.188;2022-08-21T03:20:38;4.1;;;2.9;;
68375;SDS011;55318;52.068;5.188;2022-08-21T03:23:54;3.7;;;2.4;;
68375;SDS011;55318;52.068;5.188;2022-08-21T03:25:32;5.0;;;2.7;;
68375;SDS011;55318;52.068;5.188;2022-08-21T03:27:12;3.5;;;2.6;;
68375;SDS011;55318;52.068;5.188;2022-08-21T03:28:50;3.2;;;2.21;;
68375;SDS011;55318;52.068;5.188;2022-08-21T03:32:04;5.5;;;3.1;;
68375;SDS011;55318;52.068;5.188;2022-08-21T03:33:41;3.4;;;2.9;;
68375;SDS011;55318;52.068;5.188;2022-08-21T03:35:18;6.5;;;2.9;;
68375;SDS011;55318;52.068;5.188;2022-08-21T03:36:56;4.3;;;2.6;;
68375;SDS011;55318;52.068;5.188;2022-08-21T03:40:12;4.2;;;3.2;;
68375;SDS011;55318;52.068;5.188;2022-08-21T03:41:52;3.9;;;2.8;;
68375;SDS011;55318;52.068;5.188;2022-08-21T03:43:29;3.9;;;3.0;;
68375;SDS011;55318;52.068;5.188;2022-08-21T03:46:45;6.7;;;2.9;;
68375;SDS011;55318;52.068;5.188;2022-08-21T03:48:22;2.31;;;2.1;;
68375;SDS011;55318;52.068;5.188;2022-08-21T03:49:59;4.41;;;2.5;;
68375;SDS011;55318;52.068;5.188;2022-08-21T03:51:37;4.2;;;2.4;;
68375;SDS011;55318;52.068;5.188;2022-08-21T03:54:52;2.7;;;2.5;;
68375;SDS011;55318;52.068;5.188;2022-08-21T03:56:28;3.8;;;2.8;;
68375;SDS011;55318;52.068;5.188;2022-08-21T03:58:06;6.3;;;3.2;;
68375;SDS011;55318;52.068;5.188;2022-08-21T04:01:20;5.5;;;2.6;;
68375;SDS011;55318;52.068;5.188;2022-08-21T04:02:56;5.6;;;2.5;;
68375;SDS011;55318;52.068;5.188;2022-08-21T04:04:33;7.3;;;3.6;;
68375;SDS011;55318;52.068;5.188;2022-08-21T04:07:47;4.91;;;2.7;;
68375;SDS011;55318;52.068;5.188;2022-08-21T04:09:24;5.9;;;3.3;;
68375;SDS011;55318;52.068;5.188;2022-08-21T04:11:02;4.5;;;3.2;;
68375;SDS011;55318;52.068;5.188;2022-08-21T04:12:39;10.8;;;3.1;;
68375;SDS011;55318;52.068;5.188;2022-08-21T04:15:53;3.9;;;2.5;;
68375;SDS011;55318;52.068;5.188;2022-08-21T04:17:30;4.7;;;3.1;;
68375;SDS011;55318;52.068;5.188;2022-08-21T04:19:07;5.8;;;3.5;;
68375;SDS011;55318;52.068;5.188;2022-08-21T04:22:24;4.41;;;3.0;;
68375;SDS011;55318;52.068;5.188;2022-08-21T04:24:00;4.61;;;2.9;;
68375;SDS011;55318;52.068;5.188;2022-08-21T04:25:36;6.1;;;3.4;;
68375;SDS011;55318;52.068;5.188;2022-08-21T04:27:13;4.0;;;2.9;;
68375;SDS011;55318;52.068;5.188;2022-08-21T04:30:26;5.0;;;2.7;;
68375;SDS011;55318;52.068;5.188;2022-08-21T04:32:03;6.4;;;3.2;;
68375;SDS011;55318;52.068;5.188;2022-08-21T04:36:56;4.8;;;3.3;;
68375;SDS011;55318;52.068;5.188;2022-08-21T04:38:32;6.6;;;3.3;;
68375;SDS011;55318;52.068;5.188;2022-08-21T04:40:10;6.6;;;3.3;;
68375;SDS011;55318;52.068;5.188;2022-08-21T04:41:49;8.4;;;3.7;;
68375;SDS011;55318;52.068;5.188;2022-08-21T04:45:01;3.8;;;3.1;;
68375;SDS011;55318;52.068;5.188;2022-08-21T04:46:38;6.4;;;3.0;;
68375;SDS011;55318;52.068;5.188;2022-08-21T04:48:15;5.3;;;3.2;;
68375;SDS011;55318;52.068;5.188;2022-08-21T04:51:33;3.5;;;2.9;;
68375;SDS011;55318;52.068;5.188;2022-08-21T04:53:14;4.41;;;3.4;;
68375;SDS011;55318;52.068;5.188;2022-08-21T04:54:54;4.5;;;3.0;;
68375;SDS011;55318;52.068;5.188;2022-08-21T04:56:38;4.61;;;2.8;;
68375;SDS011;55318;52.068;5.188;2022-08-21T05:01:34;5.6;;;3.3;;
68375;SDS011;55318;52.068;5.188;2022-08-21T05:03:14;5.4;;;2.9;;
68375;SDS011;55318;52.068;5.188;2022-08-21T05:04:53;5.7;;;2.9;;
68375;SDS011;55318;52.068;5.188;2022-08-21T05:08:14;5.2;;;3.1;;
68375;SDS011;55318;52.068;5.188;2022-08-21T05:09:54;4.1;;;3.0;;
68375;SDS011;55318;52.068;5.188;2022-08-21T05:11:32;6.3;;;4.2;;
68375;SDS011;55318;52.068;5.188;2022-08-21T05:14:48;5.4;;;3.4;;
68375;SDS011;55318;52.068;5.188;2022-08-21T05:16:26;5.4;;;3.4;;
68375;SDS011;55318;52.068;5.188;2022-08-21T05:18:03;5.3;;;3.0;;
68375;SDS011;55318;52.068;5.188;2022-08-21T05:19:40;5.6;;;3.5;;
68375;SDS011;55318;52.068;5.188;2022-08-21T05:22:53;6.7;;;3.2;;
68375;SDS011;55318;52.068;5.188;2022-08-21T05:24:30;7.3;;;3.1;;
68375;SDS011;55318;52.068;5.188;2022-08-21T05:26:07;5.7;;;3.1;;
68375;SDS011;55318;52.068;5.188;2022-08-21T05:29:20;7.2;;;3.8;;
68375;SDS011;55318;52.068;5.188;2022-08-21T05:30:57;4.7;;;2.6;;
68375;SDS011;55318;52.068;5.188;2022-08-21T05:32:35;6.8;;;2.8;;
68375;SDS011;55318;52.068;5.188;2022-08-21T05:34:12;9.1;;;3.2;;
68375;SDS011;55318;52.068;5.188;2022-08-21T05:37:27;5.6;;;3.1;;
68375;SDS011;55318;52.068;5.188;2022-08-21T05:39:03;7.1;;;3.2;;
68375;SDS011;55318;52.068;5.188;2022-08-21T05:40:41;6.0;;;4.0;;
68375;SDS011;55318;52.068;5.188;2022-08-21T05:43:53;8.31;;;3.0;;
68375;SDS011;55318;52.068;5.188;2022-08-21T05:45:31;3.8;;;2.6;;
68375;SDS011;55318;52.068;5.188;2022-08-21T05:47:09;6.7;;;3.1;;
68375;SDS011;55318;52.068;5.188;2022-08-21T05:48:46;6.5;;;3.4;;
68375;SDS011;55318;52.068;5.188;2022-08-21T05:52:00;7.4;;;3.5;;
68375;SDS011;55318;52.068;5.188;2022-08-21T05:53:37;5.9;;;3.2;;
68375;SDS011;55318;52.068;5.188;2022-08-21T05:55:15;4.3;;;2.4;;
68375;SDS011;55318;52.068;5.188;2022-08-21T05:58:27;3.8;;;2.4;;
68375;SDS011;55318;52.068;5.188;2022-08-21T06:00:04;5.0;;;3.3;;
68375;SDS011;55318;52.068;5.188;2022-08-21T06:01:41;4.3;;;2.5;;
68375;SDS011;55318;52.068;5.188;2022-08-21T06:05:00;7.3;;;3.5;;
68375;SDS011;55318;52.068;5.188;2022-08-21T06:06:37;4.41;;;2.7;;
68375;SDS011;55318;52.068;5.188;2022-08-21T06:08:13;8.4;;;3.4;;
68375;SDS011;55318;52.068;5.188;2022-08-21T06:09:51;10.21;;;2.6;;
68375;SDS011;55318;52.068;5.188;2022-08-21T06:13:04;6.1;;;2.5;;
68375;SDS011;55318;52.068;5.188;2022-08-21T06:14:41;4.41;;;2.8;;
68375;SDS011;55318;52.068;5.188;2022-08-21T06:16:18;5.4;;;2.7;;
68375;SDS011;55318;52.068;5.188;2022-08-21T06:19:32;4.7;;;2.8;;
68375;SDS011;55318;52.068;5.188;2022-08-21T06:21:09;5.2;;;2.4;;
68375;SDS011;55318;52.068;5.188;2022-08-21T06:22:46;6.2;;;2.31;;
68375;SDS011;55318;52.068;5.188;2022-08-21T06:24:22;6.7;;;2.9;;
68375;SDS011;55318;52.068;5.188;2022-08-21T06:27:37;4.7;;;2.6;;
68375;SDS011;55318;52.068;5.188;2022-08-21T06:29:16;7.4;;;2.9;;
68375;SDS011;55318;52.068;5.188;2022-08-21T06:30:53;6.9;;;3.5;;
68375;SDS011;55318;52.068;5.188;2022-08-21T06:34:07;7.3;;;2.9;;
68375;SDS011;55318;52.068;5.188;2022-08-21T06:35:45;5.9;;;2.31;;
68375;SDS011;55318;52.068;5.188;2022-08-21T06:37:22;5.5;;;2.7;;
68375;SDS011;55318;52.068;5.188;2022-08-21T06:38:58;3.6;;;1.9;;
68375;SDS011;55318;52.068;5.188;2022-08-21T06:42:12;3.1;;;2.0;;
68375;SDS011;55318;52.068;5.188;2022-08-21T06:43:50;3.4;;;1.9;;
68375;SDS011;55318;52.068;5.188;2022-08-21T06:45:28;6.1;;;2.4;;
68375;SDS011;55318;52.068;5.188;2022-08-21T06:48:41;6.4;;;2.4;;
68375;SDS011;55318;52.068;5.188;2022-08-21T06:50:17;2.6;;;1.6;;
68375;SDS011;55318;52.068;5.188;2022-08-21T06:51:54;5.5;;;2.4;;
68375;SDS011;55318;52.068;5.188;2022-08-21T06:55:10;6.0;;;2.4;;
68375;SDS011;55318;52.068;5.188;2022-08-21T06:56:49;5.7;;;3.1;;
68375;SDS011;55318;52.068;5.188;2022-08-21T06:58:26;4.1;;;2.4;;
68375;SDS011;55318;52.068;5.188;2022-08-21T07:00:04;4.41;;;2.21;;
68375;SDS011;55318;52.068;5.188;2022-08-21T07:03:21;4.3;;;2.4;;
68375;SDS011;55318;52.068;5.188;2022-08-21T07:05:01;5.3;;;1.6;;
68375;SDS011;55318;52.068;5.188;2022-08-21T07:06:38;4.1;;;2.4;;
68375;SDS011;55318;52.068;5.188;2022-08-21T07:08:15;3.8;;;2.4;;
68375;SDS011;55318;52.068;5.188;2022-08-21T07:11:29;3.6;;;2.1;;
68375;SDS011;55318;52.068;5.188;2022-08-21T07:13:05;3.5;;;1.9;;
68375;SDS011;55318;52.068;5.188;2022-08-21T07:14:42;6.2;;;2.0;;
68375;SDS011;55318;52.068;5.188;2022-08-21T07:17:57;4.3;;;2.21;;
68375;SDS011;55318;52.068;5.188;2022-08-21T07:19:34;5.7;;;2.31;;
68375;SDS011;55318;52.068;5.188;2022-08-21T07:21:10;6.7;;;2.31;;
68375;SDS011;55318;52.068;5.188;2022-08-21T07:24:23;4.91;;;2.31;;
68375;SDS011;55318;52.068;5.188;2022-08-21T07:26:00;4.91;;;3.0;;
68375;SDS011;55318;52.068;5.188;2022-08-21T07:27:37;4.41;;;1.8;;
68375;SDS011;55318;52.068;5.188;2022-08-21T07:29:13;3.5;;;2.21;;
68375;SDS011;55318;52.068;5.188;2022-08-21T07:32:29;3.9;;;1.8;;
68375;SDS011;55318;52.068;5.188;2022-08-21T07:34:08;3.6;;;2.0;;
68375;SDS011;55318;52.068;5.188;2022-08-21T07:35:44;5.7;;;1.9;;
68375;SDS011;55318;52.068;5.188;2022-08-21T07:38:58;7.1;;;2.21;;
68375;SDS011;55318;52.068;5.188;2022-08-21T07:40:35;5.2;;;2.1;;
68375;SDS011;55318;52.068;5.188;2022-08-21T07:42:11;8.31;;;2.1;;
68375;SDS011;55318;52.068;5.188;2022-08-21T07:43:47;5.4;;;2.1;;
68375;SDS011;55318;52.068;5.188;2022-08-21T07:47:03;8.5;;;2.0;;
68375;SDS011;55318;52.068;5.188;2022-08-21T07:48:40;3.1;;;1.9;;
68375;SDS011;55318;52.068;5.188;2022-08-21T07:50:17;3.4;;;1.7;;
68375;SDS011;55318;52.068;5.188;2022-08-21T07:53:31;5.4;;;2.6;;
68375;SDS011;55318;52.068;5.188;2022-08-21T07:55:08;6.7;;;2.1;;
68375;SDS011;55318;52.068;5.188;2022-08-21T07:56:47;3.4;;;1.7;;
68375;SDS011;55318;52.068;5.188;2022-08-21T08:00:00;6.2;;;2.5;;
68375;SDS011;55318;52.068;5.188;2022-08-21T08:01:36;7.5;;;2.9;;
68375;SDS011;55318;52.068;5.188;2022-08-21T08:03:13;3.0;;;1.6;;
68375;SDS011;55318;52.068;5.188;2022-08-21T08:04:50;8.4;;;3.3;;
68375;SDS011;55318;52.068;5.188;2022-08-21T08:08:04;5.6;;;1.6;;
68375;SDS011;55318;52.068;5.188;2022-08-21T08:09:41;6.1;;;1.9;;
68375;SDS011;55318;52.068;5.188;2022-08-21T08:11:17;3.5;;;1.8;;
68375;SDS011;55318;52.068;5.188;2022-08-21T08:14:32;6.4;;;2.0;;
68375;SDS011;55318;52.068;5.188;2022-08-21T08:16:09;4.5;;;2.31;;
68375;SDS011;55318;52.068;5.188;2022-08-21T08:17:46;7.4;;;1.9;;
68375;SDS011;55318;52.068;5.188;2022-08-21T08:19:24;4.0;;;2.4;;
68375;SDS011;55318;52.068;5.188;2022-08-21T08:22:39;7.4;;;2.0;;
68375;SDS011;55318;52.068;5.188;2022-08-21T08:24:16;3.3;;;1.9;;
68375;SDS011;55318;52.068;5.188;2022-08-21T08:25:52;3.8;;;1.9;;
68375;SDS011;55318;52.068;5.188;2022-08-21T08:29:08;7.1;;;1.9;;
68375;SDS011;55318;52.068;5.188;2022-08-21T08:30:44;6.7;;;2.31;;
68375;SDS011;55318;52.068;5.188;2022-08-21T08:32:21;3.0;;;2.0;;
68375;SDS011;55318;52.068;5.188;2022-08-21T08:33:59;6.3;;;2.21;;
68375;SDS011;55318;52.068;5.188;2022-08-21T08:37:13;5.3;;;2.4;;
68375;SDS011;55318;52.068;5.188;2022-08-21T08:38:49;2.1;;;1.6;;
68375;SDS011;55318;52.068;5.188;2022-08-21T08:40:27;6.2;;;2.0;;
68375;SDS011;55318;52.068;5.188;2022-08-21T08:44:07;4.61;;;2.21;;
68375;SDS011;55318;52.068;5.188;2022-08-21T08:45:46;4.7;;;1.9;;
68375;SDS011;55318;52.068;5.188;2022-08-21T08:47:27;6.3;;;2.5;;
68375;SDS011;55318;52.068;5.188;2022-08-21T08:49:07;2.7;;;1.7;;
68375;SDS011;55318;52.068;5.188;2022-08-21T08:50:50;5.5;;;2.31;;
68375;SDS011;55318;52.068;5.188;2022-08-21T08:54:15;3.8;;;1.8;;
68375;SDS011;55318;52.068;5.188;2022-08-21T08:55:58;6.2;;;1.9;;
68375;SDS011;55318;52.068;5.188;2022-08-21T08:57:37;5.4;;;2.1;;
68375;SDS011;55318;52.068;5.188;2022-08-21T08:59:17;3.8;;;2.4;;
68375;SDS011;55318;52.068;5.188;2022-08-21T09:02:52;7.9;;;2.31;;
68375;SDS011;55318;52.068;5.188;2022-08-21T09:04:31;6.8;;;2.1;;
68375;SDS011;55318;52.068;5.188;2022-08-21T09:06:11;4.3;;;1.9;;
68375;SDS011;55318;52.068;5.188;2022-08-21T09:08:13;3.3;;;1.9;;
68375;SDS011;55318;52.068;5.188;2022-08-21T09:10:11;5.7;;;2.1;;
68375;SDS011;55318;52.068;5.188;2022-08-21T09:11:56;7.4;;;2.8;;
68375;SDS011;55318;52.068;5.188;2022-08-21T09:15:29;3.8;;;2.0;;
68375;SDS011;55318;52.068;5.188;2022-08-21T09:17:15;5.8;;;1.9;;
68375;SDS011;55318;52.068;5.188;2022-08-21T09:19:18;5.7;;;2.1;;
68375;SDS011;55318;52.068;5.188;2022-08-21T09:21:15;4.5;;;1.6;;
68375;SDS011;55318;52.068;5.188;2022-08-21T09:23:04;5.11;;;1.6;;
68375;SDS011;55318;52.068;5.188;2022-08-21T09:25:01;3.8;;;2.1;;
68375;SDS011;55318;52.068;5.188;2022-08-21T09:26:45;7.7;;;2.0;;
68375;SDS011;55318;52.068;5.188;2022-08-21T09:28:33;7.0;;;1.7;;
68375;SDS011;55318;52.068;5.188;2022-08-21T09:31:49;4.91;;;1.5;;
68375;SDS011;55318;52.068;5.188;2022-08-21T09:33:26;7.7;;;1.6;;
68375;SDS011;55318;52.068;5.188;2022-08-21T09:35:06;8.1;;;2.4;;
68375;SDS011;55318;52.068;5.188;2022-08-21T09:36:47;9.5;;;1.8;;
68375;SDS011;55318;52.068;5.188;2022-08-21T09:40:15;6.4;;;2.21;;
68375;SDS011;55318;52.068;5.188;2022-08-21T09:42:07;4.0;;;1.2;;
68375;SDS011;55318;52.068;5.188;2022-08-21T09:43:51;4.41;;;1.6;;
68375;SDS011;55318;52.068;5.188;2022-08-21T09:45:30;5.4;;;1.7;;
68375;SDS011;55318;52.068;5.188;2022-08-21T09:48:47;3.8;;;1.3;;
68375;SDS011;55318;52.068;5.188;2022-08-21T09:50:26;3.8;;;2.0;;
68375;SDS011;55318;52.068;5.188;2022-08-21T09:52:11;3.9;;;1.4;;
68375;SDS011;55318;52.068;5.188;2022-08-21T09:53:55;7.9;;;2.31;;
68375;SDS011;55318;52.068;5.188;2022-08-21T09:58:45;4.91;;;1.5;;
68375;SDS011;55318;52.068;5.188;2022-08-21T10:00:26;2.5;;;1.3;;
68375;SDS011;55318;52.068;5.188;2022-08-21T10:02:18;3.6;;;1.6;;
68375;SDS011;55318;52.068;5.188;2022-08-21T10:04:03;2.21;;;1.4;;
68375;SDS011;55318;52.068;5.188;2022-08-21T10:07:32;2.31;;;1.8;;
68375;SDS011;55318;52.068;5.188;2022-08-21T10:09:13;3.2;;;1.2;;
68375;SDS011;55318;52.068;5.188;2022-08-21T10:10:55;4.3;;;1.8;;
68375;SDS011;55318;52.068;5.188;2022-08-21T10:12:44;4.8;;;1.2;;
68375;SDS011;55318;52.068;5.188;2022-08-21T10:14:35;1.6;;;1.0;;
68375;SDS011;55318;52.068;5.188;2022-08-21T10:16:36;6.3;;;1.9;;
68375;SDS011;55318;52.068;5.188;2022-08-21T10:20:17;5.3;;;1.2;;
68375;SDS011;55318;52.068;5.188;2022-08-21T10:22:00;2.5;;;1.2;;
68375;SDS011;55318;52.068;5.188;2022-08-21T10:23:51;3.2;;;0.9;;
68375;SDS011;55318;52.068;5.188;2022-08-21T10:25:38;6.8;;;1.4;;
68375;SDS011;55318;52.068;5.188;2022-08-21T10:27:27;4.2;;;0.9;;
68375;SDS011;55318;52.068;5.188;2022-08-21T10:29:16;2.21;;;1.0;;
68375;SDS011;55318;52.068;5.188;2022-08-21T10:31:18;5.6;;;1.3;;
68375;SDS011;55318;52.068;5.188;2022-08-21T10:35:02;2.9;;;1.11;;
68375;SDS011;55318;52.068;5.188;2022-08-21T10:36:48;6.5;;;1.5;;
68375;SDS011;55318;52.068;5.188;2022-08-21T10:38:53;3.9;;;1.11;;
68375;SDS011;55318;52.068;5.188;2022-08-21T10:40:34;5.3;;;1.7;;
68375;SDS011;55318;52.068;5.188;2022-08-21T10:42:22;3.0;;;0.9;;
68375;SDS011;55318;52.068;5.188;2022-08-21T10:44:14;4.41;;;1.2;;
68375;SDS011;55318;52.068;5.188;2022-08-21T10:46:00;2.4;;;1.0;;
68375;SDS011;55318;52.068;5.188;2022-08-21T10:47:54;1.6;;;1.2;;
68375;SDS011;55318;52.068;5.188;2022-08-21T10:51:24;2.9;;;1.7;;
68375;SDS011;55318;52.068;5.188;2022-08-21T10:53:16;5.11;;;1.4;;
68375;SDS011;55318;52.068;5.188;2022-08-21T10:55:06;2.21;;;1.2;;
68375;SDS011;55318;52.068;5.188;2022-08-21T10:56:48;3.1;;;1.11;;
68375;SDS011;55318;52.068;5.188;2022-08-21T10:58:34;2.7;;;1.11;;
68375;SDS011;55318;52.068;5.188;2022-08-21T11:01:59;2.7;;;1.0;;
68375;SDS011;55318;52.068;5.188;2022-08-21T11:03:44;3.5;;;0.9;;
68375;SDS011;55318;52.068;5.188;2022-08-21T11:05:30;2.9;;;1.11;;
68375;SDS011;55318;52.068;5.188;2022-08-21T11:07:10;1.4;;;1.2;;
68375;SDS011;55318;52.068;5.188;2022-08-21T11:08:58;5.6;;;0.9;;
68375;SDS011;55318;52.068;5.188;2022-08-21T11:12:31;3.3;;;1.5;;
68375;SDS011;55318;52.068;5.188;2022-08-21T11:14:20;1.6;;;0.8;;
68375;SDS011;55318;52.068;5.188;2022-08-21T11:16:09;1.6;;;1.0;;
68375;SDS011;55318;52.068;5.188;2022-08-21T11:17:58;3.3;;;1.7;;
68375;SDS011;55318;52.068;5.188;2022-08-21T11:19:57;2.7;;;1.11;;
68375;SDS011;55318;52.068;5.188;2022-08-21T11:21:46;3.4;;;1.0;;
68375;SDS011;55318;52.068;5.188;2022-08-21T11:23:33;1.5;;;1.11;;
68375;SDS011;55318;52.068;5.188;2022-08-21T11:27:03;2.31;;;1.2;;
68375;SDS011;55318;52.068;5.188;2022-08-21T11:28:55;2.21;;;1.11;;
68375;SDS011;55318;52.068;5.188;2022-08-21T11:30:43;2.1;;;1.2;;
68375;SDS011;55318;52.068;5.188;2022-08-21T11:32:45;3.2;;;1.11;;
68375;SDS011;55318;52.068;5.188;2022-08-21T11:34:45;4.8;;;1.4;;
68375;SDS011;55318;52.068;5.188;2022-08-21T11:36:32;4.7;;;1.6;;
68375;SDS011;55318;52.068;5.188;2022-08-21T11:38:22;1.6;;;1.0;;
68375;SDS011;55318;52.068;5.188;2022-08-21T11:42:01;6.3;;;1.2;;
68375;SDS011;55318;52.068;5.188;2022-08-21T11:43:50;6.8;;;0.9;;
68375;SDS011;55318;52.068;5.188;2022-08-21T11:45:37;3.2;;;1.3;;
68375;SDS011;55318;52.068;5.188;2022-08-21T11:47:29;1.8;;;0.7;;
68375;SDS011;55318;52.068;5.188;2022-08-21T11:49:30;0.9;;;0.8;;
68375;SDS011;55318;52.068;5.188;2022-08-21T11:51:25;3.3;;;1.7;;
68375;SDS011;55318;52.068;5.188;2022-08-21T11:53:17;4.3;;;1.2;;
68375;SDS011;55318;52.068;5.188;2022-08-21T11:55:07;3.0;;;1.4;;
68375;SDS011;55318;52.068;5.188;2022-08-21T11:58:35;7.3;;;1.6;;
68375;SDS011;55318;52.068;5.188;2022-08-21T12:00:16;9.81;;;1.4;;
68375;SDS011;55318;52.068;5.188;2022-08-21T12:01:59;6.2;;;0.9;;
68375;SDS011;55318;52.068;5.188;2022-08-21T12:03:36;3.7;;;1.6;;
68375;SDS011;55318;52.068;5.188;2022-08-21T12:05:23;4.0;;;1.11;;
68375;SDS011;55318;52.068;5.188;2022-08-21T12:08:56;2.31;;;1.11;;
68375;SDS011;55318;52.068;5.188;2022-08-21T12:10:36;7.4;;;1.4;;
68375;SDS011;55318;52.068;5.188;2022-08-21T12:12:22;1.11;;;0.7;;
68375;SDS011;55318;52.068;5.188;2022-08-21T12:14:11;1.9;;;0.6;;
68375;SDS011;55318;52.068;5.188;2022-08-21T12:15:52;2.31;;;0.9;;
68375;SDS011;55318;52.068;5.188;2022-08-21T12:19:27;4.7;;;1.0;;
68375;SDS011;55318;52.068;5.188;2022-08-21T12:21:23;1.11;;;0.7;;
68375;SDS011;55318;52.068;5.188;2022-08-21T12:23:05;0.8;;;0.8;;
68375;SDS011;55318;52.068;5.188;2022-08-21T12:25:05;3.4;;;0.8;;
68375;SDS011;55318;52.068;5.188;2022-08-21T12:26:49;2.6;;;0.7;;
68375;SDS011;55318;52.068;5.188;2022-08-21T12:28:28;3.6;;;1.3;;
68375;SDS011;55318;52.068;5.188;2022-08-21T12:32:20;4.61;;;1.9;;
68375;SDS011;55318;52.068;5.188;2022-08-21T12:34:02;3.4;;;0.8;;
68375;SDS011;55318;52.068;5.188;2022-08-21T12:35:46;1.9;;;1.11;;
68375;SDS011;55318;52.068;5.188;2022-08-21T12:39:25;1.5;;;1.11;;
68375;SDS011;55318;52.068;5.188;2022-08-21T12:41:05;2.31;;;1.2;;
68375;SDS011;55318;52.068;5.188;2022-08-21T12:44:33;2.0;;;0.8;;
68375;SDS011;55318;52.068;5.188;2022-08-21T12:46:15;2.1;;;0.9;;
68375;SDS011;55318;52.068;5.188;2022-08-21T12:47:56;3.3;;;1.3;;
68375;SDS011;55318;52.068;5.188;2022-08-21T12:49:39;3.7;;;1.11;;
68375;SDS011;55318;52.068;5.188;2022-08-21T12:51:28;2.4;;;0.8;;
68375;SDS011;55318;52.068;5.188;2022-08-21T12:55:00;1.8;;;0.9;;
68375;SDS011;55318;52.068;5.188;2022-08-21T12:56:39;1.9;;;1.0;;
68375;SDS011;55318;52.068;5.188;2022-08-21T12:58:16;3.4;;;1.2;;
68375;SDS011;55318;52.068;5.188;2022-08-21T12:59:55;0.7;;;0.7;;
68375;SDS011;55318;52.068;5.188;2022-08-21T13:03:21;2.9;;;1.0;;
68375;SDS011;55318;52.068;5.188;2022-08-21T13:05:02;2.21;;;1.2;;
68375;SDS011;55318;52.068;5.188;2022-08-21T13:06:43;2.9;;;1.6;;